createdAt,value
2017-11-24T00:00:44.713Z,0.00
2017-11-24T00:01:44.709Z,0.00
2017-11-24T00:02:44.707Z,0.00
2017-11-24T00:03:44.703Z,0.00
2017-11-24T00:04:44.701Z,0.00
2017-11-24T00:05:44.699Z,0.00
2017-11-24T00:06:44.695Z,0.00
2017-11-24T00:07:44.691Z,0.00
2017-11-24T00:08:44.687Z,0.00
2017-11-24T00:09:44.733Z,0.00
2017-11-24T00:10:44.681Z,0.00
2017-11-24T00:11:44.678Z,0.00
2017-11-24T00:12:44.674Z,0.00
2017-11-24T00:13:44.671Z,0.00
2017-11-24T00:14:44.667Z,0.00
2017-11-24T00:15:44.679Z,0.00
2017-11-24T00:16:44.660Z,0.00
2017-11-24T00:17:44.657Z,0.00
2017-11-24T00:18:44.655Z,0.00
2017-11-24T00:19:44.651Z,0.00
2017-11-24T00:20:44.648Z,0.00
2017-11-24T00:21:44.644Z,0.00
2017-11-24T00:22:44.642Z,0.00
2017-11-24T00:23:44.638Z,0.00
2017-11-24T00:24:44.635Z,0.00
2017-11-24T00:25:44.634Z,0.00
2017-11-24T00:26:44.628Z,0.00
2017-11-24T00:27:44.626Z,0.00
2017-11-24T00:28:44.622Z,0.00
2017-11-24T00:29:44.618Z,0.00
2017-11-24T00:30:44.616Z,0.00
2017-11-24T00:31:44.613Z,0.00
2017-11-24T00:32:44.609Z,0.00
2017-11-24T00:33:44.664Z,0.00
2017-11-24T00:34:44.605Z,0.00
2017-11-24T00:35:44.602Z,0.00
2017-11-24T00:36:44.598Z,0.00
2017-11-24T00:37:44.594Z,0.00
2017-11-24T00:38:44.592Z,0.00
2017-11-24T00:39:44.588Z,0.00
2017-11-24T00:40:44.587Z,0.00
2017-11-24T00:41:44.586Z,0.00
2017-11-24T00:42:44.597Z,0.00
2017-11-24T00:43:44.576Z,0.00
2017-11-24T00:44:44.580Z,0.00
2017-11-24T00:45:44.570Z,0.00
2017-11-24T00:46:44.566Z,0.00
2017-11-24T00:47:44.614Z,0.00
2017-11-24T00:48:44.561Z,0.00
2017-11-24T00:49:44.559Z,0.00
2017-11-24T00:50:44.553Z,0.00
2017-11-24T00:51:44.551Z,0.00
2017-11-24T00:52:44.548Z,0.00
2017-11-24T00:53:44.545Z,0.00
2017-11-24T00:54:44.542Z,0.00
2017-11-24T00:55:44.538Z,0.00
2017-11-24T00:56:44.538Z,0.00
2017-11-24T00:57:44.532Z,0.00
2017-11-24T00:58:44.529Z,0.00
2017-11-24T00:59:44.525Z,0.00
2017-11-24T01:00:44.524Z,0.00
2017-11-24T01:01:44.518Z,0.00
2017-11-24T01:02:44.516Z,0.00
2017-11-24T01:03:44.519Z,0.00
2017-11-24T01:04:44.510Z,0.00
2017-11-24T01:05:44.507Z,0.00
2017-11-24T01:06:44.504Z,0.00
2017-11-24T01:07:44.502Z,0.00
2017-11-24T01:08:44.497Z,0.00
2017-11-24T01:09:44.493Z,0.00
2017-11-24T01:10:44.491Z,0.00
2017-11-24T01:11:44.488Z,0.00
2017-11-24T01:12:44.484Z,0.00
2017-11-24T01:13:44.481Z,0.00
2017-11-24T01:14:44.578Z,0.00
2017-11-24T01:15:44.474Z,0.00
2017-11-24T01:16:44.473Z,0.00
2017-11-24T01:17:44.468Z,0.00
2017-11-24T01:18:44.465Z,0.00
2017-11-24T01:19:44.463Z,0.00
2017-11-24T01:20:44.459Z,0.00
2017-11-24T01:21:44.454Z,0.00
2017-11-24T01:22:44.455Z,0.00
2017-11-24T01:23:44.449Z,0.00
2017-11-24T01:24:44.445Z,0.00
2017-11-24T01:25:44.442Z,0.00
2017-11-24T01:26:44.439Z,0.00
2017-11-24T01:27:44.436Z,0.00
2017-11-24T01:28:44.432Z,0.00
2017-11-24T01:29:44.429Z,0.00
2017-11-24T01:30:44.425Z,0.00
2017-11-24T01:31:44.423Z,0.00
2017-11-24T01:32:44.420Z,0.00
2017-11-24T01:33:44.416Z,0.00
2017-11-24T01:34:44.413Z,0.00
2017-11-24T01:35:44.411Z,0.00
2017-11-24T01:36:44.406Z,0.00
2017-11-24T01:37:44.402Z,0.00
2017-11-24T01:38:44.400Z,0.00
2017-11-24T01:39:44.396Z,0.00
2017-11-24T01:40:44.393Z,0.00
2017-11-24T01:41:44.403Z,0.00
2017-11-24T01:42:44.387Z,0.00
2017-11-24T01:43:44.384Z,0.00
2017-11-24T01:44:44.381Z,0.00
2017-11-24T01:45:44.377Z,0.00
2017-11-24T01:46:44.375Z,0.00
2017-11-24T01:47:44.372Z,0.00
2017-11-24T01:48:44.369Z,0.00
2017-11-24T01:49:44.364Z,0.00
2017-11-24T01:50:44.361Z,0.00
2017-11-24T01:51:44.366Z,0.00
2017-11-24T01:52:44.356Z,0.00
2017-11-24T01:53:44.351Z,0.00
2017-11-24T01:54:44.349Z,0.00
2017-11-24T01:55:44.345Z,0.00
2017-11-24T01:56:44.342Z,0.00
2017-11-24T01:57:44.339Z,0.00
2017-11-24T01:58:44.335Z,0.00
2017-11-24T01:59:44.338Z,0.00
2017-11-24T02:00:44.329Z,0.00
2017-11-24T02:01:44.325Z,0.00
2017-11-24T02:02:44.322Z,0.00
2017-11-24T02:03:44.319Z,0.00
2017-11-24T02:04:44.320Z,0.00
2017-11-24T02:05:44.313Z,0.00
2017-11-24T02:06:44.309Z,0.00
2017-11-24T02:07:44.316Z,0.00
2017-11-24T02:08:44.304Z,0.00
2017-11-24T02:09:44.302Z,0.00
2017-11-24T02:10:44.297Z,0.00
2017-11-24T02:11:44.295Z,0.00
2017-11-24T02:12:44.291Z,0.00
2017-11-24T02:13:44.288Z,0.00
2017-11-24T02:14:44.284Z,0.00
2017-11-24T02:15:44.281Z,0.00
2017-11-24T02:16:44.278Z,0.00
2017-11-24T02:17:44.324Z,0.00
2017-11-24T02:18:44.270Z,0.00
2017-11-24T02:19:44.267Z,0.00
2017-11-24T02:20:44.268Z,0.00
2017-11-24T02:21:44.261Z,0.00
2017-11-24T02:22:44.256Z,0.00
2017-11-24T02:23:44.253Z,0.00
2017-11-24T02:24:44.251Z,0.00
2017-11-24T02:25:44.253Z,0.00
2017-11-24T02:26:44.244Z,0.00
2017-11-24T02:27:44.240Z,0.00
2017-11-24T02:28:44.238Z,0.00
2017-11-24T02:29:44.246Z,0.00
2017-11-24T02:30:44.231Z,0.00
2017-11-24T02:31:44.227Z,0.00
2017-11-24T02:32:44.225Z,0.00
2017-11-24T02:33:44.227Z,0.00
2017-11-24T02:34:44.217Z,0.00
2017-11-24T02:35:44.215Z,0.00
2017-11-24T02:36:44.263Z,0.00
2017-11-24T02:37:44.206Z,0.00
2017-11-24T02:38:44.208Z,0.00
2017-11-24T02:39:44.202Z,0.00
2017-11-24T02:40:44.197Z,0.00
2017-11-24T02:41:44.195Z,0.00
2017-11-24T02:42:44.190Z,0.00
2017-11-24T02:43:44.186Z,0.00
2017-11-24T02:44:44.183Z,0.00
2017-11-24T02:45:44.179Z,0.00
2017-11-24T02:46:44.228Z,0.00
2017-11-24T02:47:44.174Z,0.00
2017-11-24T02:48:44.172Z,0.00
2017-11-24T02:49:44.167Z,0.00
2017-11-24T02:50:44.184Z,0.00
2017-11-24T02:51:44.159Z,0.00
2017-11-24T02:52:44.164Z,0.00
2017-11-24T02:53:44.153Z,0.00
2017-11-24T02:54:44.152Z,0.00
2017-11-24T02:55:44.145Z,0.00
2017-11-24T02:56:44.147Z,0.00
2017-11-24T02:57:44.139Z,0.00
2017-11-24T02:58:44.135Z,0.00
2017-11-24T02:59:44.132Z,0.00
2017-11-24T03:00:44.129Z,0.00
2017-11-24T03:01:44.125Z,0.00
2017-11-24T03:02:44.122Z,0.00
2017-11-24T03:03:44.118Z,0.00
2017-11-24T03:04:44.115Z,0.00
2017-11-24T03:05:44.110Z,0.00
2017-11-24T03:06:44.108Z,0.00
2017-11-24T03:07:44.103Z,0.00
2017-11-24T03:08:44.102Z,0.00
2017-11-24T03:09:44.096Z,0.00
2017-11-24T03:10:44.094Z,0.00
2017-11-24T03:11:44.090Z,0.00
2017-11-24T03:12:44.088Z,0.00
2017-11-24T03:13:44.083Z,0.00
2017-11-24T03:14:44.079Z,0.00
2017-11-24T03:15:44.078Z,0.00
2017-11-24T03:16:44.075Z,0.00
2017-11-24T03:17:44.068Z,0.00
2017-11-24T03:18:44.066Z,0.00
2017-11-24T03:19:44.064Z,0.00
2017-11-24T03:20:44.059Z,0.00
2017-11-24T03:21:44.056Z,0.00
2017-11-24T03:22:44.052Z,0.00
2017-11-24T03:23:44.055Z,0.00
2017-11-24T03:24:44.050Z,0.00
2017-11-24T03:25:44.041Z,0.00
2017-11-24T03:26:44.039Z,0.00
2017-11-24T03:27:44.036Z,0.00
2017-11-24T03:28:44.033Z,0.00
2017-11-24T03:29:44.080Z,0.00
2017-11-24T03:30:44.027Z,0.00
2017-11-24T03:31:44.032Z,0.00
2017-11-24T03:32:44.018Z,0.00
2017-11-24T03:33:44.014Z,0.00
2017-11-24T03:34:44.011Z,0.00
2017-11-24T03:35:44.008Z,0.00
2017-11-24T03:36:44.003Z,0.00
2017-11-24T03:37:44.002Z,0.00
2017-11-24T03:38:43.997Z,0.00
2017-11-24T03:39:43.993Z,0.00
2017-11-24T03:40:43.990Z,0.00
2017-11-24T03:41:43.990Z,0.00
2017-11-24T03:42:43.983Z,0.00
2017-11-24T03:43:43.979Z,0.00
2017-11-24T03:44:43.976Z,0.00
2017-11-24T03:45:43.973Z,0.00
2017-11-24T03:46:43.969Z,0.00
2017-11-24T03:47:43.965Z,0.00
2017-11-24T03:48:43.962Z,0.00
2017-11-24T03:49:43.957Z,0.00
2017-11-24T03:50:43.955Z,0.00
2017-11-24T03:51:43.950Z,0.00
2017-11-24T03:52:43.947Z,0.00
2017-11-24T03:53:43.943Z,0.00
2017-11-24T03:54:43.939Z,0.00
2017-11-24T03:55:43.936Z,0.00
2017-11-24T03:56:43.934Z,0.00
2017-11-24T03:57:43.928Z,0.00
2017-11-24T03:58:43.928Z,0.00
2017-11-24T03:59:43.922Z,0.00
2017-11-24T04:00:43.917Z,0.00
2017-11-24T04:01:43.914Z,0.00
2017-11-24T04:02:43.910Z,0.00
2017-11-24T04:03:43.907Z,0.00
2017-11-24T04:04:43.903Z,0.00
2017-11-24T04:05:43.900Z,0.00
2017-11-24T04:06:43.895Z,0.00
2017-11-24T04:07:43.893Z,0.00
2017-11-24T04:08:43.888Z,0.00
2017-11-24T04:09:43.883Z,0.00
2017-11-24T04:10:43.881Z,0.00
2017-11-24T04:11:43.878Z,0.00
2017-11-24T04:12:43.874Z,0.00
2017-11-24T04:13:43.868Z,0.00
2017-11-24T04:14:43.865Z,0.00
2017-11-24T04:15:43.861Z,0.00
2017-11-24T04:16:43.859Z,0.00
2017-11-24T04:17:43.853Z,0.00
2017-11-24T04:18:43.849Z,0.00
2017-11-24T04:19:43.848Z,0.00
2017-11-24T04:20:43.842Z,0.00
2017-11-24T04:21:43.838Z,0.00
2017-11-24T04:22:43.836Z,0.00
2017-11-24T04:23:43.832Z,0.00
2017-11-24T04:24:43.827Z,0.00
2017-11-24T04:25:43.825Z,0.00
2017-11-24T04:26:43.820Z,0.00
2017-11-24T04:27:43.817Z,0.00
2017-11-24T04:28:43.813Z,0.00
2017-11-24T04:29:43.807Z,0.00
2017-11-24T04:30:43.804Z,0.00
2017-11-24T04:31:43.801Z,0.00
2017-11-24T04:32:43.798Z,0.00
2017-11-24T04:33:43.793Z,0.00
2017-11-24T04:34:43.791Z,0.00
2017-11-24T04:35:43.786Z,0.00
2017-11-24T04:36:43.785Z,0.00
2017-11-24T04:37:43.779Z,0.00
2017-11-24T04:38:43.776Z,0.00
2017-11-24T04:39:43.771Z,0.00
2017-11-24T04:40:43.776Z,0.00
2017-11-24T04:41:43.763Z,0.00
2017-11-24T04:42:43.760Z,0.00
2017-11-24T04:43:43.808Z,0.00
2017-11-24T04:44:43.759Z,0.00
2017-11-24T04:45:43.749Z,0.00
2017-11-24T04:46:43.746Z,0.00
2017-11-24T04:47:43.741Z,0.00
2017-11-24T04:48:43.736Z,0.00
2017-11-24T04:49:43.733Z,0.00
2017-11-24T04:50:43.743Z,0.00
2017-11-24T04:51:43.725Z,0.00
2017-11-24T04:52:43.724Z,0.00
2017-11-24T04:53:43.718Z,0.00
2017-11-24T04:54:43.715Z,0.00
2017-11-24T04:55:43.711Z,0.00
2017-11-24T04:56:43.708Z,0.00
2017-11-24T04:57:43.703Z,0.00
2017-11-24T04:58:43.699Z,0.00
2017-11-24T04:59:43.698Z,0.00
2017-11-24T05:00:43.692Z,0.00
2017-11-24T05:01:43.687Z,0.00
2017-11-24T05:02:43.684Z,0.00
2017-11-24T05:03:43.690Z,0.00
2017-11-24T05:04:43.677Z,0.00
2017-11-24T05:05:43.674Z,0.00
2017-11-24T05:06:43.669Z,0.00
2017-11-24T05:07:43.666Z,0.00
2017-11-24T05:08:43.667Z,0.00
2017-11-24T05:09:43.657Z,0.00
2017-11-24T05:10:43.654Z,0.00
2017-11-24T05:11:43.650Z,0.00
2017-11-24T05:12:43.647Z,0.00
2017-11-24T05:13:43.645Z,0.00
2017-11-24T05:14:43.662Z,0.00
2017-11-24T05:15:43.634Z,0.00
2017-11-24T05:16:43.632Z,0.00
2017-11-24T05:17:43.627Z,0.00
2017-11-24T05:18:43.624Z,0.00
2017-11-24T05:19:43.620Z,0.00
2017-11-24T05:20:43.616Z,0.00
2017-11-24T05:21:43.612Z,0.00
2017-11-24T05:22:43.609Z,0.00
2017-11-24T05:23:43.605Z,0.00
2017-11-24T05:24:43.601Z,0.00
2017-11-24T05:25:43.597Z,0.00
2017-11-24T05:26:43.594Z,0.00
2017-11-24T05:27:43.592Z,0.00
2017-11-24T05:28:43.587Z,0.00
2017-11-24T05:29:43.603Z,0.00
2017-11-24T05:30:43.580Z,0.00
2017-11-24T05:31:43.577Z,0.00
2017-11-24T05:32:43.575Z,0.00
2017-11-24T05:33:43.568Z,0.00
2017-11-24T05:34:43.565Z,0.00
2017-11-24T05:35:43.562Z,0.00
2017-11-24T05:36:43.558Z,0.00
2017-11-24T05:37:43.603Z,0.00
2017-11-24T05:38:43.550Z,0.00
2017-11-24T05:39:43.548Z,0.00
2017-11-24T05:40:43.550Z,0.00
2017-11-24T05:41:43.539Z,0.00
2017-11-24T05:42:43.536Z,0.00
2017-11-24T05:43:43.531Z,0.00
2017-11-24T05:44:43.529Z,0.00
2017-11-24T05:45:43.530Z,0.00
2017-11-24T05:46:43.522Z,0.00
2017-11-24T05:47:43.521Z,0.00
2017-11-24T05:48:43.515Z,0.00
2017-11-24T05:49:43.509Z,0.00
2017-11-24T05:50:43.505Z,0.00
2017-11-24T05:51:43.511Z,0.00
2017-11-24T05:52:43.499Z,0.00
2017-11-24T05:53:43.502Z,0.00
2017-11-24T05:54:43.500Z,0.00
2017-11-24T05:55:43.487Z,0.00
2017-11-24T05:56:43.486Z,0.00
2017-11-24T05:57:43.480Z,0.00
2017-11-24T05:58:43.481Z,4.00
2017-11-24T05:59:43.473Z,4.00
2017-11-24T06:00:43.469Z,4.00
2017-11-24T06:01:43.465Z,0.00
2017-11-24T06:02:43.461Z,4.00
2017-11-24T06:03:43.458Z,4.00
2017-11-24T06:04:43.455Z,4.00
2017-11-24T06:05:43.452Z,4.00
2017-11-24T06:06:43.446Z,8.00
2017-11-24T06:07:43.444Z,4.00
2017-11-24T06:08:43.439Z,8.00
2017-11-24T06:09:43.434Z,8.00
2017-11-24T06:10:43.432Z,8.00
2017-11-24T06:11:43.430Z,12.00
2017-11-24T06:12:43.424Z,16.00
2017-11-24T06:13:43.420Z,20.00
2017-11-24T06:14:43.417Z,24.00
2017-11-24T06:15:43.413Z,28.00
2017-11-24T06:16:43.410Z,32.00
2017-11-24T06:17:43.405Z,36.00
2017-11-24T06:18:43.401Z,44.00
2017-11-24T06:19:43.405Z,52.00
2017-11-24T06:20:43.395Z,64.00
2017-11-24T06:21:43.395Z,72.00
2017-11-24T06:22:43.388Z,84.00
2017-11-24T06:23:43.383Z,92.00
2017-11-24T06:24:43.379Z,108.00
2017-11-24T06:25:43.375Z,120.00
2017-11-24T06:26:43.372Z,136.00
2017-11-24T06:27:43.368Z,156.00
2017-11-24T06:28:43.365Z,172.00
2017-11-24T06:29:43.360Z,188.00
2017-11-24T06:30:43.366Z,208.00
2017-11-24T06:31:43.353Z,232.00
2017-11-24T06:32:43.352Z,252.00
2017-11-24T06:33:43.345Z,272.00
2017-11-24T06:34:43.346Z,296.00
2017-11-24T06:35:43.339Z,320.00
2017-11-24T06:36:43.337Z,344.00
2017-11-24T06:37:43.330Z,368.00
2017-11-24T06:38:43.328Z,396.00
2017-11-24T06:39:43.324Z,424.00
2017-11-24T06:40:43.320Z,456.00
2017-11-24T06:41:43.316Z,488.00
2017-11-24T06:42:43.314Z,524.00
2017-11-24T06:43:43.309Z,560.00
2017-11-24T06:44:43.306Z,600.00
2017-11-24T06:45:43.302Z,644.00
2017-11-24T06:46:43.299Z,688.00
2017-11-24T06:47:43.297Z,736.00
2017-11-24T06:48:43.291Z,780.00
2017-11-24T06:49:43.287Z,828.00
2017-11-24T06:50:43.282Z,876.00
2017-11-24T06:51:43.279Z,924.00
2017-11-24T06:52:43.275Z,960.00
2017-11-24T06:53:43.271Z,996.00
2017-11-24T06:54:43.268Z,1032.00
2017-11-24T06:55:43.264Z,1064.00
2017-11-24T06:56:43.261Z,1108.00
2017-11-24T06:57:43.255Z,1152.00
2017-11-24T06:58:43.253Z,1212.00
2017-11-24T06:59:43.248Z,1280.00
2017-11-24T07:00:43.247Z,1348.00
2017-11-24T07:01:43.241Z,1400.00
2017-11-24T07:02:43.290Z,1448.00
2017-11-24T07:03:43.235Z,1580.00
2017-11-24T07:04:43.231Z,1564.00
2017-11-24T07:05:43.227Z,1568.00
2017-11-24T07:06:43.224Z,1600.00
2017-11-24T07:07:43.220Z,1700.00
2017-11-24T07:08:43.217Z,2900.00
2017-11-24T07:09:43.212Z,5964.00
2017-11-24T07:10:43.210Z,6028.00
2017-11-24T07:11:43.205Z,4396.00
2017-11-24T07:12:43.206Z,4872.00
2017-11-24T07:13:43.199Z,5620.00
2017-11-24T07:14:43.196Z,7116.00
2017-11-24T07:15:43.193Z,10696.00
2017-11-24T07:16:43.195Z,12544.00
2017-11-24T07:17:43.188Z,17312.00
2017-11-24T07:18:43.185Z,18496.00
2017-11-24T07:19:43.183Z,19136.00
2017-11-24T07:20:43.181Z,16800.00
2017-11-24T07:21:43.177Z,16832.00
2017-11-24T07:22:43.177Z,21856.00
2017-11-24T07:23:43.177Z,26944.00
2017-11-24T07:24:43.174Z,23840.00
2017-11-24T07:25:43.174Z,26848.00
2017-11-24T07:26:43.175Z,27040.00
2017-11-24T07:27:43.172Z,26592.00
2017-11-24T07:28:43.173Z,23648.00
2017-11-24T07:29:43.221Z,17696.00
2017-11-24T07:30:43.174Z,13648.00
2017-11-24T07:31:43.173Z,7992.00
2017-11-24T07:32:43.173Z,5708.00
2017-11-24T07:33:43.172Z,5880.00
2017-11-24T07:34:43.173Z,6100.00
2017-11-24T07:35:43.175Z,6364.00
2017-11-24T07:36:43.176Z,6580.00
2017-11-24T07:37:43.175Z,7348.00
2017-11-24T07:38:43.177Z,17312.00
2017-11-24T07:39:43.177Z,22880.00
2017-11-24T07:40:43.179Z,28448.00
2017-11-24T07:41:43.182Z,31872.00
2017-11-24T07:42:43.181Z,24032.00
2017-11-24T07:43:43.185Z,21216.00
2017-11-24T07:44:43.188Z,21888.00
2017-11-24T07:45:43.189Z,20448.00
2017-11-24T07:46:43.192Z,21184.00
2017-11-24T07:47:43.194Z,21792.00
2017-11-24T07:48:43.197Z,18720.00
2017-11-24T07:49:43.198Z,20832.00
2017-11-24T07:50:43.201Z,18496.00
2017-11-24T07:51:43.202Z,16256.00
2017-11-24T07:52:43.205Z,13276.00
2017-11-24T07:53:43.207Z,13952.00
2017-11-24T07:54:43.210Z,11960.00
2017-11-24T07:55:43.212Z,12556.00
2017-11-24T07:56:43.215Z,15744.00
2017-11-24T07:57:43.217Z,16896.00
2017-11-24T07:58:43.217Z,15552.00
2017-11-24T07:59:43.220Z,15240.00
2017-11-24T08:00:43.223Z,9932.00
2017-11-24T08:01:43.224Z,6612.00
2017-11-24T08:02:43.226Z,6212.00
2017-11-24T08:03:43.227Z,6156.00
2017-11-24T08:04:43.230Z,6044.00
2017-11-24T08:05:43.230Z,6036.00
2017-11-24T08:06:43.238Z,6000.00
2017-11-24T08:07:43.233Z,6132.00
2017-11-24T08:08:43.234Z,7616.00
2017-11-24T08:09:43.235Z,11932.00
2017-11-24T08:10:43.237Z,15840.00
2017-11-24T08:11:43.237Z,14868.00
2017-11-24T08:12:43.248Z,13556.00
2017-11-24T08:13:43.236Z,12836.00
2017-11-24T08:14:43.238Z,15584.00
2017-11-24T08:15:43.239Z,19424.00
2017-11-24T08:16:43.241Z,20224.00
2017-11-24T08:17:43.240Z,15176.00
2017-11-24T08:18:43.242Z,12972.00
2017-11-24T08:19:43.243Z,12168.00
2017-11-24T08:20:43.245Z,9196.00
2017-11-24T08:21:43.245Z,6772.00
2017-11-24T08:22:43.246Z,6644.00
2017-11-24T08:23:43.253Z,6592.00
2017-11-24T08:24:43.248Z,6648.00
2017-11-24T08:25:43.250Z,6680.00
2017-11-24T08:26:43.250Z,6908.00
2017-11-24T08:27:43.252Z,7796.00
2017-11-24T08:28:43.251Z,9996.00
2017-11-24T08:29:43.251Z,11896.00
2017-11-24T08:30:43.252Z,12204.00
2017-11-24T08:31:43.253Z,10204.00
2017-11-24T08:32:43.269Z,9848.00
2017-11-24T08:33:43.254Z,9092.00
2017-11-24T08:34:43.254Z,8244.00
2017-11-24T08:35:43.255Z,7836.00
2017-11-24T08:36:43.256Z,7144.00
2017-11-24T08:37:43.254Z,5992.00
2017-11-24T08:38:43.256Z,6048.00
2017-11-24T08:39:43.256Z,5744.00
2017-11-24T08:40:43.257Z,5740.00
2017-11-24T08:41:43.257Z,5960.00
2017-11-24T08:42:43.258Z,5816.00
2017-11-24T08:43:43.286Z,5964.00
2017-11-24T08:44:43.258Z,6724.00
2017-11-24T08:45:43.269Z,8808.00
2017-11-24T08:46:43.260Z,8708.00
2017-11-24T08:47:43.260Z,10552.00
2017-11-24T08:48:43.260Z,12256.00
2017-11-24T08:49:43.259Z,14992.00
2017-11-24T08:50:43.259Z,17696.00
2017-11-24T08:51:43.262Z,16896.00
2017-11-24T08:52:43.260Z,11916.00
2017-11-24T08:53:43.261Z,7064.00
2017-11-24T08:54:43.262Z,5464.00
2017-11-24T08:55:43.264Z,7220.00
2017-11-24T08:56:43.264Z,7600.00
2017-11-24T08:57:43.263Z,6552.00
2017-11-24T08:58:43.265Z,7880.00
2017-11-24T08:59:43.266Z,6996.00
2017-11-24T09:00:43.266Z,6636.00
2017-11-24T09:01:43.273Z,8236.00
2017-11-24T09:02:43.275Z,10440.00
2017-11-24T09:03:43.269Z,15416.00
2017-11-24T09:04:43.270Z,13796.00
2017-11-24T09:05:43.268Z,9908.00
2017-11-24T09:06:43.272Z,12084.00
2017-11-24T09:07:43.271Z,12420.00
2017-11-24T09:08:43.272Z,9304.00
2017-11-24T09:09:43.272Z,7816.00
2017-11-24T09:10:43.274Z,7376.00
2017-11-24T09:11:43.274Z,7696.00
2017-11-24T09:12:43.277Z,7644.00
2017-11-24T09:13:43.276Z,7880.00
2017-11-24T09:14:43.278Z,6460.00
2017-11-24T09:15:43.282Z,8880.00
2017-11-24T09:16:43.280Z,12176.00
2017-11-24T09:17:43.281Z,8752.00
2017-11-24T09:18:43.288Z,7296.00
2017-11-24T09:19:43.284Z,5600.00
2017-11-24T09:20:43.286Z,5744.00
2017-11-24T09:21:43.287Z,5900.00
2017-11-24T09:22:43.288Z,5804.00
2017-11-24T09:23:43.290Z,6052.00
2017-11-24T09:24:43.293Z,8056.00
2017-11-24T09:25:43.297Z,10828.00
2017-11-24T09:26:43.295Z,10232.00
2017-11-24T09:27:43.297Z,10112.00
2017-11-24T09:28:43.299Z,9044.00
2017-11-24T09:29:43.301Z,8928.00
2017-11-24T09:30:43.303Z,8340.00
2017-11-24T09:31:43.310Z,9460.00
2017-11-24T09:32:43.308Z,11816.00
2017-11-24T09:33:43.310Z,13124.00
2017-11-24T09:34:43.313Z,13676.00
2017-11-24T09:35:43.315Z,15564.00
2017-11-24T09:36:43.319Z,21120.00
2017-11-24T09:37:43.320Z,16928.00
2017-11-24T09:38:43.323Z,13960.00
2017-11-24T09:39:43.327Z,16992.00
2017-11-24T09:40:43.330Z,18560.00
2017-11-24T09:41:43.332Z,21280.00
2017-11-24T09:42:43.337Z,23488.00
2017-11-24T09:43:43.341Z,23008.00
2017-11-24T09:44:43.344Z,25984.00
2017-11-24T09:45:43.348Z,34784.00
2017-11-24T09:46:43.351Z,37728.00
2017-11-24T09:47:43.356Z,33216.00
2017-11-24T09:48:43.361Z,34688.00
2017-11-24T09:49:43.365Z,32128.00
2017-11-24T09:50:43.368Z,28096.00
2017-11-24T09:51:43.372Z,15704.00
2017-11-24T09:52:43.379Z,10504.00
2017-11-24T09:53:43.381Z,10644.00
2017-11-24T09:54:43.437Z,10952.00
2017-11-24T09:55:43.391Z,10560.00
2017-11-24T09:56:43.396Z,20480.00
2017-11-24T09:57:43.400Z,26656.00
2017-11-24T09:58:43.409Z,25344.00
2017-11-24T09:59:43.510Z,26272.00
2017-11-24T10:00:43.416Z,29760.00
2017-11-24T10:01:43.419Z,32608.00
2017-11-24T10:02:43.422Z,32000.00
2017-11-24T10:03:43.430Z,29280.00
2017-11-24T10:04:43.436Z,24960.00
2017-11-24T10:05:43.446Z,20192.00
2017-11-24T10:06:43.445Z,21792.00
2017-11-24T10:07:43.450Z,24000.00
2017-11-24T10:08:43.456Z,25216.00
2017-11-24T10:09:43.462Z,30208.00
2017-11-24T10:10:43.468Z,31744.00
2017-11-24T10:11:43.472Z,34496.00
2017-11-24T10:12:43.479Z,33056.00
2017-11-24T10:13:43.485Z,30720.00
2017-11-24T10:14:43.490Z,35424.00
2017-11-24T10:15:43.502Z,41216.00
2017-11-24T10:16:43.503Z,39680.00
2017-11-24T10:17:43.510Z,41344.00
2017-11-24T10:18:43.517Z,42432.00
2017-11-24T10:19:43.525Z,40032.00
2017-11-24T10:20:43.531Z,40032.00
2017-11-24T10:21:43.539Z,40576.00
2017-11-24T10:22:43.547Z,36864.00
2017-11-24T10:23:43.555Z,37440.00
2017-11-24T10:24:43.563Z,38624.00
2017-11-24T10:25:43.571Z,36064.00
2017-11-24T10:26:43.604Z,32096.00
2017-11-24T10:27:43.589Z,32640.00
2017-11-24T10:28:43.598Z,28000.00
2017-11-24T10:29:43.605Z,29184.00
2017-11-24T10:30:43.615Z,29280.00
2017-11-24T10:31:43.626Z,21408.00
2017-11-24T10:32:43.636Z,19584.00
2017-11-24T10:33:43.642Z,27168.00
2017-11-24T10:34:43.651Z,28608.00
2017-11-24T10:35:43.667Z,23136.00
2017-11-24T10:36:43.669Z,14384.00
2017-11-24T10:37:43.677Z,13292.00
2017-11-24T10:38:43.687Z,16736.00
2017-11-24T10:39:43.695Z,20992.00
2017-11-24T10:40:43.705Z,21856.00
2017-11-24T10:41:43.712Z,18944.00
2017-11-24T10:42:43.719Z,15028.00
2017-11-24T10:43:43.731Z,14424.00
2017-11-24T10:44:43.739Z,14396.00
2017-11-24T10:45:43.745Z,10696.00
2017-11-24T10:46:43.755Z,9608.00
2017-11-24T10:47:43.770Z,7388.00
2017-11-24T10:48:43.770Z,8340.00
2017-11-24T10:49:43.784Z,13100.00
2017-11-24T10:50:43.786Z,9532.00
2017-11-24T10:51:43.800Z,8804.00
2017-11-24T10:52:43.801Z,8612.00
2017-11-24T10:53:43.813Z,7216.00
2017-11-24T10:54:43.814Z,6652.00
2017-11-24T10:55:43.827Z,7120.00
2017-11-24T10:56:43.828Z,6468.00
2017-11-24T10:57:43.841Z,6796.00
2017-11-24T10:58:43.840Z,6764.00
2017-11-24T10:59:43.853Z,7032.00
2017-11-24T11:00:43.855Z,7772.00
2017-11-24T11:01:43.868Z,7196.00
2017-11-24T11:02:43.916Z,8996.00
2017-11-24T11:03:43.879Z,8352.00
2017-11-24T11:04:43.878Z,9960.00
2017-11-24T11:05:43.888Z,9564.00
2017-11-24T11:06:43.897Z,10660.00
2017-11-24T11:07:43.902Z,12484.00
2017-11-24T11:08:43.901Z,12340.00
2017-11-24T11:09:43.955Z,16576.00
2017-11-24T11:10:43.917Z,16192.00
2017-11-24T11:11:43.918Z,17120.00
2017-11-24T11:12:43.924Z,15968.00
2017-11-24T11:13:43.930Z,17344.00
2017-11-24T11:14:43.934Z,16128.00
2017-11-24T11:15:43.944Z,22592.00
2017-11-24T11:16:43.946Z,26464.00
2017-11-24T11:17:43.983Z,25664.00
2017-11-24T11:18:43.956Z,22848.00
2017-11-24T11:19:43.963Z,14676.00
2017-11-24T11:20:43.976Z,9424.00
2017-11-24T11:21:43.980Z,9080.00
2017-11-24T11:22:43.981Z,8944.00
2017-11-24T11:23:43.987Z,8308.00
2017-11-24T11:24:43.993Z,9196.00
2017-11-24T11:25:44.000Z,12732.00
2017-11-24T11:26:44.004Z,12716.00
2017-11-24T11:27:44.016Z,17344.00
2017-11-24T11:28:44.019Z,8364.00
2017-11-24T11:29:44.023Z,9644.00
2017-11-24T11:30:44.029Z,16704.00
2017-11-24T11:31:44.037Z,19008.00
2017-11-24T11:32:44.041Z,15840.00
2017-11-24T11:33:44.047Z,16448.00
2017-11-24T11:34:44.053Z,16128.00
2017-11-24T11:35:44.061Z,17280.00
2017-11-24T11:36:44.065Z,14100.00
2017-11-24T11:37:44.070Z,17472.00
2017-11-24T11:38:44.077Z,16832.00
2017-11-24T11:39:44.085Z,11792.00
2017-11-24T11:40:44.091Z,10956.00
2017-11-24T11:41:44.096Z,12232.00
2017-11-24T11:42:44.102Z,17536.00
2017-11-24T11:43:44.109Z,22496.00
2017-11-24T11:44:44.115Z,22208.00
2017-11-24T11:45:44.122Z,21984.00
2017-11-24T11:46:44.126Z,19520.00
2017-11-24T11:47:44.132Z,17152.00
2017-11-24T11:48:44.140Z,14164.00
2017-11-24T11:49:44.146Z,13964.00
2017-11-24T11:50:44.153Z,18496.00
2017-11-24T11:51:44.159Z,14536.00
2017-11-24T11:52:44.166Z,16032.00
2017-11-24T11:53:44.172Z,15360.00
2017-11-24T11:54:44.478Z,12888.00
2017-11-24T11:55:44.187Z,11008.00
2017-11-24T11:56:44.192Z,9992.00
2017-11-24T11:57:44.197Z,10660.00
2017-11-24T11:58:44.206Z,9304.00
2017-11-24T11:59:44.261Z,9920.00
2017-11-24T12:00:44.223Z,8744.00
2017-11-24T12:01:44.224Z,7376.00
2017-11-24T12:02:44.230Z,7256.00
2017-11-24T12:03:44.237Z,8896.00
2017-11-24T12:04:44.243Z,8680.00
2017-11-24T12:05:44.249Z,10552.00
2017-11-24T12:06:44.254Z,10320.00
2017-11-24T12:07:44.261Z,9612.00
2017-11-24T12:08:44.268Z,11244.00
2017-11-24T12:09:44.273Z,14016.00
2017-11-24T12:10:44.278Z,14592.00
2017-11-24T12:11:44.303Z,16448.00
2017-11-24T12:12:44.292Z,14876.00
2017-11-24T12:13:44.297Z,10452.00
2017-11-24T12:14:44.303Z,9996.00
2017-11-24T12:15:44.306Z,7464.00
2017-11-24T12:16:44.315Z,6688.00
2017-11-24T12:17:44.320Z,6104.00
2017-11-24T12:18:44.325Z,5776.00
2017-11-24T12:19:44.384Z,6132.00
2017-11-24T12:20:44.339Z,6068.00
2017-11-24T12:21:44.343Z,6008.00
2017-11-24T12:22:44.349Z,5424.00
2017-11-24T12:23:44.355Z,5640.00
2017-11-24T12:24:44.360Z,5520.00
2017-11-24T12:25:44.365Z,6364.00
2017-11-24T12:26:44.369Z,8568.00
2017-11-24T12:27:44.384Z,12580.00
2017-11-24T12:28:44.381Z,14956.00
2017-11-24T12:29:44.386Z,16512.00
2017-11-24T12:30:44.390Z,18304.00
2017-11-24T12:31:44.396Z,17344.00
2017-11-24T12:32:44.401Z,14388.00
2017-11-24T12:33:44.404Z,9036.00
2017-11-24T12:34:44.411Z,8072.00
2017-11-24T12:35:44.416Z,9872.00